My Meet Scores
Ava Weibye, Phenom Gymnastics - MyMeetScores.com
Top100 | Top Teams | Upcoming Meets | Completed Meets | Latest | Add Scores | Help| Support | Bookmark and Share

Ava Weibye, Phenom Gymnastics
Personal Bests
LevelVault BarsBeamFloorAA
39.4759.350 8.3258.75035.350
48.7009.250 9.3009.05036.075
68.8258.950 8.4758.55034.800
79.4259.775 9.2759.60038.000
89.2759.600 9.4009.62537.600
Meet Scores
Date Meet Team Session Level Division Vault Bars Beam Floor AA
2019-01-18 2019 Bravo Classic Phenom Gymnastics 5A 8 Child 8.050 15 9.325 7 9.100 6 9.125 12T 35.600 9
2018-12-14 2018 Aspire Classic Phenom Gymnastics 4 8 Middle 8.300 15 9.225 6 9.125 2 9.500 1 36.150 3T
2018-12-07 2018 MEGA Magic Classic Phenom Gymnastics A4 8 Jr B 8.450 9 8.900 11 8.050 12 9.200 6 34.600 11
2018-03-23 Illinois Level 7 & 8 State Competition Phenom Gymnastics 03 8 Jr B 9.200 14 9.525 3 9.300 6T 9.550 3T 37.575 3
2018-03-02 2018 Flip'r Invitational Phenom Gymnastics 9 8 Jr 9.175 2 9.400 4 9.400 5 9.625 2 37.600 4
2018-02-23 Kinetic Classic Phenom Gymnastics 2 8 Younger 9.250 7T 9.425 9 9.100 12T 9.325 7T 37.100 7
2018-02-16 2018 Magical Classic Phenom Gymnastics A2 8 Group 1 8.850 4 9.350 4 9.250 4 8.700 11 36.150 4
2018-01-19 2018 Bravo Classic Phenom Gymnastics 5A 8 Child 9.275 3T 9.600 2 9.300 7 8.950 15 37.125 2T
2018-01-12 St Jude Benefit Meet Phenom Gymnastics 3B 8 JrA 8.850 9 6.850 14 9.000 10 9.000 9T 33.700 14
2017-12-15 2017 Aspire Classic Phenom Gymnastics 7B 8 Younger 9.200 4 9.400 6 9.225 6 9.450 6T 37.275 3
2017-03-23 2017 Illinois Level 6, 7 State Championship Phenom Gymnastics 1 7 Jr B 9.350 11 9.775 1 9.275 12 9.600 6T 38.000 6
2017-03-10 Lucky Invitational Phenom Gymnastics A07 7 Jr A 9.050 20T 9.550 2 9.250 13T 9.375 10 37.225 9
2017-02-17 Big Classic Phenom Gymnastics A 7 Junior A 9.250 9T 9.475 5T 8.575 23T 9.250 17 36.550 10
2017-01-20 2017 Bravo Classic Phenom Gymnastics 12A 7 7-10yrs 9.425 7T 9.300 9 8.825 15 9.275 15 36.825 13
2016-12-16 2016 Aspire Classic Phenom Gymnastics 1 7 Younger 9.300 5T 9.325 9 8.900 13 9.250 12T 36.775 7
2016-12-02 Ultimate Wish Classic Phenom Gymnastics 7 7 Child 9.125 4T 9.600 1 9.175 5 9.300 5 37.200 2
2016-04-01 2016 Illinois Level 6 & 7 State Championships Aspire Gymnastics Academy 08 6 L6 Jr A 8.825 32 8.950 17T 8.475 34 8.550 35 34.800 32
2015-03-19 2015 Illinois Level 4 State Championship GymQuest of Plainfield LLC All 4 ChildC 8.700 18 9.250 7 9.075 16 9.050 19 36.075 15
2015-02-27 Elk Grove Gymnastics Invite GymQuest of Plainfield LLC 4 4 6-10yrs 8.475 7T 9.250 3 9.300 3 8.750 7 35.775 6
2014-03-07 Illinois Level 3 State Meet GymQuest of Plainfield LLC 4 3 Child D 9.475 14 8.750 29 8.325 31 8.750 27 35.300 28
2014-02-15 BIG Dream Classic 2014 GymQuest of Plainfield LLC 6A 3 Child A 9.250 2 9.350 1T 8.225 10 8.525 11 35.350 6
2013-12-19 2013 Hawaiian Pineapple Classic GymQuest of Plainfield LLC A11 3 7 9.100 6T 9.100 4 7.100 18 8.650 10 33.950 10
Get your scores on
a t-shirt, pin, or hoodie

Order by December 13

www.lazysuits.com